Time;durP1;ratioP1;P1;durP2;ratioP2;P2;SDS_P1;SDS_P2;PMS_P1;PMS_P2;Temp;Humidity;BMP_temperature;BMP_pressure;BME280_temperature;BME280_humidity;BME280_pressure;Samples;Min_cycle;Max_cycle;Signal;HPM_P1;HPM_P2
2022/07/14 00:01:31;;;;;;;5.40;3.80;;;;;;;21.47;61.65;100387.84;5016419;28;20084;-60
2022/07/14 00:04:15;;;;;;;6.25;3.55;;;;;;;21.45;61.74;100385.25;5001719;28;20581;-60
2022/07/14 00:06:59;;;;;;;5.95;3.40;;;;;;;21.44;61.79;100380.00;5016804;28;20141;-58
2022/07/14 00:09:43;;;;;;;7.85;3.90;;;;;;;21.45;61.94;100384.38;5016239;28;20128;-59
2022/07/14 00:12:28;;;;;;;9.40;4.28;;;;;;;21.44;61.97;100385.28;5001706;28;20057;-60
2022/07/14 00:15:11;;;;;;;6.50;3.70;;;;;;;21.45;61.91;100389.66;5016426;28;20189;-58
2022/07/14 00:17:58;;;;;;;7.90;3.83;;;;;;;21.43;62.03;100387.06;5001627;28;20045;-59
2022/07/14 00:20:42;;;;;;;7.97;3.53;;;;;;;21.43;62.06;100376.53;5016580;28;20413;-60
2022/07/14 00:23:26;;;;;;;9.32;4.85;;;;;;;21.42;62.14;100376.53;5016038;28;20049;-59
2022/07/14 00:26:10;;;;;;;7.00;3.20;;;;;;;21.42;62.15;100379.16;5016069;28;20076;-59
2022/07/14 00:28:54;;;;;;;6.93;3.80;;;;;;;21.42;61.95;100366.88;5015549;28;20057;-60
2022/07/14 00:31:41;;;;;;;8.35;3.85;;;;;;;21.41;62.13;100364.28;5015058;28;20065;-59
2022/07/14 00:34:27;;;;;;;10.60;3.88;;;;;;;21.41;62.19;100365.13;5016339;28;20402;-60
2022/07/14 00:37:14;;;;;;;8.05;3.58;;;;;;;21.40;62.19;100383.63;5014800;28;20049;-60
2022/07/14 00:40:00;;;;;;;8.13;3.75;;;;;;;21.40;62.26;100378.38;5016204;28;20538;-60
2022/07/14 00:42:48;;;;;;;7.43;3.63;;;;;;;21.39;62.27;100374.84;5015883;28;20527;-58
2022/07/14 00:45:32;;;;;;;6.10;3.53;;;;;;;21.38;62.27;100372.25;5001158;28;20488;-58
2022/07/14 00:48:17;;;;;;;10.05;3.55;;;;;;;21.37;62.52;100359.97;5016120;28;20484;-58
2022/07/14 00:51:01;;;;;;;7.28;3.80;;;;;;;21.36;62.41;100355.59;5001153;28;20176;-59
2022/07/14 00:53:58;;;;;;;6.38;3.30;;;;;;;21.34;62.42;100373.22;5015364;28;20045;-58
2022/07/14 00:56:42;;;;;;;6.85;4.20;;;;;;;21.33;62.48;100379.41;5001146;28;20133;-60
2022/07/14 00:59:25;;;;;;;8.57;3.33;;;;;;;21.32;62.46;100381.19;5016007;28;20044;-58
2022/07/14 01:02:12;;;;;;;9.63;3.65;;;;;;;21.32;62.39;100385.56;5014506;28;20065;-59
2022/07/14 01:04:56;;;;;;;9.02;3.78;;;;;;;21.32;62.50;100375.03;5015244;28;20100;-59
2022/07/14 01:07:41;;;;;;;10.05;3.88;;;;;;;21.31;62.65;100379.44;5015660;28;20405;-59
2022/07/14 01:10:25;;;;;;;9.38;3.83;;;;;;;21.30;62.63;100381.19;5000654;28;20052;-58
2022/07/14 01:13:09;;;;;;;8.63;3.53;;;;;;;21.30;62.50;100391.75;5015481;28;20504;-59
2022/07/14 01:15:56;;;;;;;7.43;3.72;;;;;;;21.29;62.57;100395.28;5015023;28;20052;-60
2022/07/14 01:18:39;;;;;;;10.68;4.13;;;;;;;21.27;62.55;100399.72;5000212;28;20577;-60
2022/07/14 01:21:25;;;;;;;8.43;4.05;;;;;;;21.27;62.59;100402.34;5015311;28;20057;-60
2022/07/14 01:24:09;;;;;;;5.57;3.35;;;;;;;21.27;62.82;100390.97;5014590;28;20511;-60
2022/07/14 01:26:54;;;;;;;8.45;3.58;;;;;;;21.26;62.62;100376.91;5014871;28;20040;-59
2022/07/14 01:29:38;;;;;;;9.38;3.97;;;;;;;21.24;62.51;100370.81;5000206;28;20076;-58
2022/07/14 01:32:22;;;;;;;9.00;3.63;;;;;;;21.22;62.76;100367.34;5015224;28;20404;-58
2022/07/14 01:35:07;;;;;;;6.03;3.30;;;;;;;21.21;62.77;100349.81;5014868;28;20053;-59
2022/07/14 01:37:51;;;;;;;7.80;3.67;;;;;;;21.19;62.82;100351.59;4999853;28;20106;-60
2022/07/14 01:40:38;;;;;;;9.35;3.75;;;;;;;21.21;62.79;100343.66;5015151;28;20542;-58
2022/07/14 01:43:24;;;;;;;11.38;4.35;;;;;;;21.22;62.77;100338.34;5015018;28;20056;-60
2022/07/14 01:46:11;;;;;;;6.68;3.42;;;;;;;21.21;62.61;100339.25;5014497;28;20566;-60
2022/07/14 01:48:55;;;;;;;7.38;3.50;;;;;;;21.22;62.75;100345.38;5014245;28;20052;-59
2022/07/14 01:51:42;;;;;;;9.48;3.42;;;;;;;21.22;62.67;100338.34;5014409;28;20052;-59
2022/07/14 01:54:26;;;;;;;11.27;3.78;;;;;;;21.21;62.72;100323.44;5013756;28;20409;-59
2022/07/14 01:57:10;;;;;;;6.15;3.13;;;;;;;21.22;62.80;100334.84;5013788;28;20409;-60
2022/07/14 01:59:54;;;;;;;9.32;3.53;;;;;;;21.20;62.89;100345.44;4999370;28;20175;-60
2022/07/14 02:02:38;;;;;;;9.30;3.78;;;;;;;21.20;62.87;100355.97;5014039;28;20468;-60
2022/07/14 02:05:27;;;;;;;8.75;3.10;;;;;;;21.19;62.77;100363.91;5014242;28;20076;-59
2022/07/14 02:08:11;;;;;;;9.15;4.07;;;;;;;21.17;62.82;100368.38;4999705;28;20121;-58
2022/07/14 02:14:00;;;;;;;7.95;3.60;;;;;;;21.15;62.97;100368.38;5014451;28;20575;-59
2022/07/14 02:16:44;;;;;;;6.07;3.40;;;;;;;21.14;62.98;100366.63;4998786;28;20111;-60
2022/07/14 02:19:28;;;;;;;8.77;3.20;;;;;;;21.14;62.75;100350.81;5014096;28;20149;-59
2022/07/14 02:22:13;;;;;;;6.20;3.58;;;;;;;21.13;62.99;100349.97;5014451;28;20053;-60
2022/07/14 02:24:57;;;;;;;6.35;3.60;;;;;;;21.14;62.94;100351.72;5013787;28;20096;-59
2022/07/14 02:27:43;;;;;;;11.77;3.97;;;;;;;21.11;63.09;100345.63;5012976;28;20053;-60
2022/07/14 02:30:28;;;;;;;6.65;3.63;;;;;;;21.10;63.02;100346.53;4999200;28;20519;-60
2022/07/14 02:33:14;;;;;;;7.95;3.45;;;;;;;21.11;63.10;100340.34;4998924;28;20123;-59
2022/07/14 02:35:58;;;;;;;8.27;3.55;;;;;;;21.10;62.90;100338.63;4999254;28;20044;-60
2022/07/14 02:38:42;;;;;;;5.82;3.22;;;;;;;21.09;63.04;100334.28;5013583;28;20049;-60
2022/07/14 02:41:26;;;;;;;10.45;4.20;;;;;;;21.09;63.11;100343.03;4999369;28;20416;-60
2022/07/14 02:44:11;;;;;;;7.45;3.28;;;;;;;21.07;63.09;100334.28;5012966;28;20532;-60
2022/07/14 02:46:54;;;;;;;12.50;3.90;;;;;;;21.09;63.11;100315.84;5013743;28;20044;-59
2022/07/14 02:49:38;;;;;;;7.93;3.17;;;;;;;21.07;63.22;100301.81;5013605;28;20049;-60
2022/07/14 02:52:22;;;;;;;8.85;4.07;;;;;;;21.07;63.03;100301.81;5012505;28;20049;-60
2022/07/14 02:55:07;;;;;;;6.65;3.10;;;;;;;21.07;63.24;100292.13;5013258;28;20048;-60
2022/07/14 02:57:51;;;;;;;9.20;3.80;;;;;;;21.09;63.27;100292.97;5013214;28;20172;-58
2022/07/14 03:00:35;;;;;;;13.82;3.40;;;;;;;21.10;63.13;100280.66;5013804;28;20056;-59
2022/07/14 03:03:20;;;;;;;5.72;3.15;;;;;;;21.07;63.25;100276.34;5013563;28;20060;-58
2022/07/14 03:06:12;;;;;;;6.78;3.47;;;;;;;21.07;63.12;100278.13;4998595;28;20092;-59
2022/07/14 03:08:56;;;;;;;9.18;3.50;;;;;;;21.07;63.16;100278.13;5013555;28;20135;-59
2022/07/14 03:11:40;;;;;;;7.47;3.33;;;;;;;21.07;63.10;100275.47;5013685;28;20057;-60
2022/07/14 03:14:24;;;;;;;7.20;3.10;;;;;;;21.06;62.94;100276.38;5013190;28;20183;-60
2022/07/14 03:17:08;;;;;;;9.13;3.45;;;;;;;21.05;63.17;100277.28;5013937;28;20041;-60
2022/07/14 03:19:55;;;;;;;9.25;3.33;;;;;;;21.02;63.34;100275.56;5016554;28;20057;-58
2022/07/14 03:22:39;;;;;;;9.02;3.60;;;;;;;21.00;63.17;100274.75;5017561;28;20103;-58
2022/07/14 03:25:23;;;;;;;11.63;3.83;;;;;;;21.00;63.27;100272.13;5016892;28;20049;-58
2022/07/14 03:28:07;;;;;;;9.95;3.72;;;;;;;21.02;63.41;100290.53;5017021;28;20049;-58
2022/07/14 03:30:58;;;;;;;10.77;3.90;;;;;;;21.02;63.21;100311.59;5017011;28;20053;-59
2022/07/14 03:33:42;;;;;;;13.43;3.65;;;;;;;21.01;63.23;100317.75;5002195;28;20045;-60
2022/07/14 03:36:25;;;;;;;9.55;3.70;;;;;;;20.99;63.25;100321.28;5017352;28;20041;-59
2022/07/14 03:39:09;;;;;;;7.28;3.22;;;;;;;21.02;63.26;100320.34;5016939;28;20045;-60
2022/07/14 03:41:53;;;;;;;11.27;4.07;;;;;;;21.01;63.91;100323.91;5017295;28;20048;-60
2022/07/14 03:44:37;;;;;;;6.90;3.00;;;;;;;21.01;63.28;100315.13;5017002;28;20124;-60
2022/07/14 03:47:24;;;;;;;8.05;3.63;;;;;;;21.00;63.35;100327.44;5016839;28;20065;-60
2022/07/14 03:50:11;;;;;;;4.72;2.70;;;;;;;20.99;63.26;100330.97;5002361;28;20508;-60
2022/07/14 03:52:55;;;;;;;6.47;3.20;;;;;;;20.97;63.30;100336.28;5002507;28;20052;-60
2022/07/14 03:55:41;;;;;;;9.48;3.42;;;;;;;20.95;63.32;100338.06;5016547;28;20049;-60
2022/07/14 03:58:26;;;;;;;9.85;3.75;;;;;;;20.94;63.41;100319.69;5016731;28;20053;-59
2022/07/14 04:01:10;;;;;;;9.38;3.83;;;;;;;20.94;63.49;100325.78;5016208;28;20092;-60
2022/07/14 04:03:54;;;;;;;7.13;3.55;;;;;;;20.93;63.34;100324.09;5015913;28;20049;-59
2022/07/14 04:06:38;;;;;;;7.80;3.03;;;;;;;20.93;63.44;100317.94;5016889;28;20122;-60
2022/07/14 04:09:22;;;;;;;8.20;3.40;;;;;;;20.92;63.32;100311.81;5016074;28;20096;-60
2022/07/14 04:12:09;;;;;;;8.43;3.63;;;;;;;20.91;63.48;100304.81;5016591;28;20125;-58
2022/07/14 04:14:53;;;;;;;6.80;2.83;;;;;;;20.91;63.38;100315.34;5016192;28;20049;-59
2022/07/14 04:17:37;;;;;;;10.80;3.53;;;;;;;20.91;63.51;100307.44;5001257;28;20045;-59
2022/07/14 04:20:24;;;;;;;8.73;3.28;;;;;;;20.92;63.33;100308.31;5015875;28;20098;-60
2022/07/14 04:23:08;;;;;;;6.60;3.28;;;;;;;20.91;63.56;100311.84;5015613;28;20077;-59
2022/07/14 04:25:52;;;;;;;7.18;3.60;;;;;;;20.90;63.40;100320.63;5016139;28;20045;-60
2022/07/14 04:28:39;;;;;;;8.00;3.63;;;;;;;20.90;63.44;100315.38;5015380;28;20460;-60
2022/07/14 04:31:26;;;;;;;9.38;3.65;;;;;;;20.88;63.40;100307.50;5016041;28;20559;-60
2022/07/14 04:34:10;;;;;;;6.82;3.20;;;;;;;20.87;63.64;100302.25;5015302;28;20133;-60
2022/07/14 04:36:54;;;;;;;9.40;3.92;;;;;;;20.87;63.34;100294.34;5015819;28;20417;-60
2022/07/14 04:39:38;;;;;;;7.10;3.22;;;;;;;20.86;63.48;100305.81;5015721;28;20455;-59
2022/07/14 04:42:27;;;;;;;7.00;3.33;;;;;;;20.85;63.46;100315.47;5015743;28;20049;-59
2022/07/14 04:45:11;;;;;;;12.80;3.70;;;;;;;20.86;63.62;100308.47;5016424;28;20053;-60
2022/07/14 04:47:55;;;;;;;8.93;3.55;;;;;;;20.85;63.51;100297.03;5015768;28;20116;-60
2022/07/14 04:53:42;;;;;;;8.23;3.65;;;;;;;20.83;63.65;100302.34;5015778;28;20088;-60
2022/07/14 04:56:26;;;;;;;5.45;3.10;;;;;;;20.84;63.74;100305.84;5015465;28;20049;-60
2022/07/14 04:59:11;;;;;;;8.32;3.65;;;;;;;20.85;63.57;100307.56;5015578;28;20080;-60
2022/07/14 05:01:57;;;;;;;7.85;3.35;;;;;;;20.82;63.56;100312.91;5014822;28;20092;-60
2022/07/14 05:04:41;;;;;;;12.55;3.40;;;;;;;20.81;63.59;100312.06;5015245;28;20057;-60
2022/07/14 05:07:27;;;;;;;8.18;2.97;;;;;;;20.80;63.74;100306.81;5015662;28;20131;-60
2022/07/14 05:10:11;;;;;;;9.05;3.20;;;;;;;20.80;63.78;100305.06;5000707;28;20056;-60
2022/07/14 05:12:55;;;;;;;10.35;3.80;;;;;;;20.80;63.68;100304.16;5015279;28;20041;-60
2022/07/14 05:15:39;;;;;;;7.97;3.78;;;;;;;20.80;63.68;100301.53;5014416;28;20053;-60
2022/07/14 05:18:24;;;;;;;12.23;3.90;;;;;;;20.79;63.80;100310.34;5013772;28;20061;-61
2022/07/14 05:21:08;;;;;;;8.15;4.10;;;;;;;20.79;63.86;100307.69;5015451;28;20072;-59
2022/07/14 05:23:52;;;;;;;10.52;3.28;;;;;;;20.78;63.76;100306.00;5015431;28;20532;-60
2022/07/14 05:26:40;;;;;;;6.78;3.15;;;;;;;20.75;63.83;100299.00;5000322;28;20052;-60
2022/07/14 05:29:24;;;;;;;5.60;2.92;;;;;;;20.76;63.88;100295.47;5000547;28;20065;-60
2022/07/14 05:32:12;;;;;;;5.85;2.97;;;;;;;20.77;63.80;100305.13;5000221;28;20115;-60
2022/07/14 05:34:58;;;;;;;11.70;3.35;;;;;;;20.76;63.88;100313.06;5014253;28;20049;-60
2022/07/14 05:37:45;;;;;;;6.80;3.45;;;;;;;20.75;63.92;100317.44;4999918;28;20052;-60
2022/07/14 05:40:29;;;;;;;7.65;3.15;;;;;;;20.75;63.82;100319.19;5014500;28;20048;-59
2022/07/14 05:43:14;;;;;;;12.75;4.22;;;;;;;20.74;63.73;100317.47;5014632;28;20072;-60
2022/07/14 05:46:08;;;;;;;12.25;3.70;;;;;;;20.73;63.96;100321.00;5014925;28;20044;-60
2022/07/14 05:48:52;;;;;;;;;;;;;;;20.71;63.83;100325.41;5000288;28;20416;-60
2022/07/14 05:51:38;;;;;;;9.73;3.75;;;;;;;20.68;63.98;100329.00;4999562;28;19920;-59
2022/07/14 05:54:22;;;;;;;13.70;3.55;;;;;;;20.67;63.95;100320.22;5013908;28;20053;-60
2022/07/14 05:57:10;;;;;;;8.93;3.70;;;;;;;20.68;63.91;100315.84;4999373;28;20548;-60
2022/07/14 05:59:54;;;;;;;9.70;3.50;;;;;;;20.66;64.06;100329.00;5013765;28;20099;-60
2022/07/14 06:02:38;;;;;;;11.05;3.95;;;;;;;20.67;63.78;100330.75;5014120;28;20088;-60
2022/07/14 06:05:22;;;;;;;10.13;3.90;;;;;;;20.68;64.04;100329.00;5014252;28;20052;-60
2022/07/14 06:08:07;;;;;;;10.60;4.55;;;;;;;20.68;64.00;100329.84;5014267;28;20092;-59
2022/07/14 06:10:55;;;;;;;7.32;3.08;;;;;;;20.66;64.13;100318.47;5013086;28;20412;-59
2022/07/14 06:13:41;;;;;;;12.75;4.03;;;;;;;20.65;64.01;100329.91;5013975;28;20052;-60
2022/07/14 06:16:28;;;;;;;9.43;3.65;;;;;;;20.65;64.25;100323.78;5013900;28;20072;-60
2022/07/14 06:19:14;;;;;;;12.02;3.78;;;;;;;20.65;64.08;100331.69;4998702;28;20049;-60
2022/07/14 06:22:03;;;;;;;9.05;4.10;;;;;;;20.64;63.88;100335.22;4999039;28;20057;-59
2022/07/14 06:24:51;;;;;;;9.50;4.63;;;;;;;20.65;64.06;100339.59;5014328;28;20053;-60
2022/07/14 06:27:35;;;;;;;8.85;4.28;;;;;;;20.65;64.07;100342.22;4998642;28;20056;-60
2022/07/14 06:30:18;;;;;;;8.88;4.05;;;;;;;20.64;64.21;100329.94;4998805;28;20064;-60
2022/07/14 06:33:02;;;;;;;9.75;4.00;;;;;;;20.66;64.13;100330.78;5014311;28;20127;-60
2022/07/14 06:35:46;;;;;;;9.23;4.65;;;;;;;20.64;64.22;100325.53;5013943;28;20141;-61
2022/07/14 06:38:30;;;;;;;10.85;4.53;;;;;;;20.65;64.13;100326.41;5014040;28;20053;-60
2022/07/14 06:41:24;;;;;;;9.15;4.57;;;;;;;20.63;64.29;100321.16;5015263;28;20044;-60
2022/07/14 06:44:13;;;;;;;12.00;4.72;;;;;;;20.62;64.11;100323.84;5013405;28;20056;-58
2022/07/14 06:46:58;;;;;;;13.07;5.00;;;;;;;20.61;64.18;100330.00;5012671;28;20519;-59
2022/07/14 06:49:42;;;;;;;10.40;4.57;;;;;;;20.60;64.11;100318.63;5013850;28;20551;-58
2022/07/14 06:52:27;;;;;;;15.85;4.82;;;;;;;20.60;64.16;100318.63;5012858;28;20053;-59
2022/07/14 06:55:13;;;;;;;9.38;5.00;;;;;;;20.62;64.15;100308.94;5013745;28;20152;-60
2022/07/14 06:57:59;;;;;;;10.20;4.22;;;;;;;20.63;64.09;100313.28;5013342;28;20129;-60
2022/07/14 07:00:44;;;;;;;9.63;4.47;;;;;;;20.64;64.31;100319.41;5014095;28;20048;-61
2022/07/14 07:03:34;;;;;;;10.15;4.55;;;;;;;20.66;64.24;100320.25;5013412;28;20064;-60
2022/07/14 07:09:21;;;;;;;13.43;5.07;;;;;;;20.65;64.20;100324.63;5013793;28;20072;-60
2022/07/14 07:12:05;;;;;;;17.88;5.20;;;;;;;20.64;64.29;100322.91;5012560;28;20077;-59
2022/07/14 07:14:50;;;;;;;11.18;4.65;;;;;;;20.64;64.11;100312.38;5013766;28;20049;-58
2022/07/14 07:17:36;;;;;;;12.55;5.10;;;;;;;20.64;64.37;100317.63;5013174;28;20041;-58
2022/07/14 07:20:23;;;;;;;9.10;4.20;;;;;;;20.64;64.11;100324.69;4998549;28;20535;-58
2022/07/14 07:23:07;;;;;;;14.90;5.28;;;;;;;20.63;64.42;100326.44;5013076;28;20428;-58
2022/07/14 07:25:52;;;;;;;11.88;5.20;;;;;;;20.64;64.21;100329.94;5012296;28;20464;-61
2022/07/14 07:28:36;;;;;;;11.25;4.50;;;;;;;20.64;64.40;100322.06;4998518;28;20068;-60
2022/07/14 07:31:35;;;;;;;10.30;4.53;;;;;;;20.63;64.30;100315.06;5013558;28;20049;-59
2022/07/14 07:34:19;;;;;;;13.82;5.35;;;;;;;20.62;64.41;100310.69;5013587;28;20056;-60
2022/07/14 07:37:04;;;;;;;8.05;4.47;;;;;;;20.62;64.41;100321.22;5012949;28;20076;-60
2022/07/14 07:39:48;;;;;;;12.80;4.47;;;;;;;20.63;64.29;100315.06;4998453;28;20461;-60
2022/07/14 07:42:32;;;;;;;9.88;5.05;;;;;;;20.63;64.26;100310.63;5013081;28;20548;-61
2022/07/14 07:45:22;;;;;;;11.57;4.45;;;;;;;20.65;64.23;100303.56;4998660;28;20048;-59
2022/07/14 07:48:06;;;;;;;12.70;4.95;;;;;;;20.65;64.33;100298.31;5011983;28;20053;-58
2022/07/14 07:50:50;;;;;;;11.93;5.10;;;;;;;20.64;64.47;100301.84;5013090;28;20512;-59
2022/07/14 07:53:34;;;;;;;14.23;4.63;;;;;;;20.65;64.30;100300.94;5013299;28;20049;-58
2022/07/14 07:56:18;;;;;;;13.50;5.22;;;;;;;20.65;64.17;100305.34;5013471;28;20053;-58
2022/07/14 07:59:02;;;;;;;12.07;4.40;;;;;;;20.63;64.27;100297.47;5013063;28;20045;-58
2022/07/14 08:01:48;;;;;;;8.48;3.60;;;;;;;20.64;64.11;100298.34;4998238;28;20116;-59
2022/07/14 08:04:35;;;;;;;12.95;4.40;;;;;;;20.64;64.09;100298.34;5000667;28;20056;-58
2022/07/14 08:07:20;;;;;;;10.45;4.38;;;;;;;20.64;64.17;100298.34;5016304;28;20052;-58
2022/07/14 08:10:04;;;;;;;15.45;4.63;;;;;;;20.65;64.20;100292.19;5016125;28;20049;-59
2022/07/14 08:12:48;;;;;;;12.80;4.47;;;;;;;20.65;63.94;100287.78;5016285;28;20133;-60
2022/07/14 08:15:32;;;;;;;16.85;4.18;;;;;;;20.63;63.95;100281.66;5016622;28;20045;-60
2022/07/14 08:18:17;;;;;;;7.70;3.67;;;;;;;20.65;64.06;100284.28;5016426;28;20092;-60
2022/07/14 08:21:01;;;;;;;6.47;3.63;;;;;;;20.66;63.95;100284.25;5015888;28;20096;-58
2022/07/14 08:23:45;;;;;;;8.45;3.38;;;;;;;20.67;63.80;100285.13;5016244;28;20045;-59
2022/07/14 08:26:31;;;;;;;8.80;3.38;;;;;;;20.64;63.47;100272.88;5016527;28;20056;-59
2022/07/14 08:29:17;;;;;;;8.35;3.50;;;;;;;20.63;63.55;100267.66;5015978;28;20053;-59
2022/07/14 08:32:01;;;;;;;9.20;3.75;;;;;;;20.64;63.40;100266.75;5016312;28;20411;-58
2022/07/14 08:34:45;;;;;;;11.27;3.55;;;;;;;20.63;63.40;100268.50;5015928;28;20052;-60
2022/07/14 08:37:29;;;;;;;12.73;3.50;;;;;;;20.63;63.31;100257.97;5015962;28;20121;-59
2022/07/14 08:40:17;;;;;;;6.57;3.50;;;;;;;20.64;63.30;100254.44;5016176;28;20045;-60
2022/07/14 08:43:01;;;;;;;9.07;3.40;;;;;;;20.65;63.09;100263.22;5014775;28;20117;-59
2022/07/14 08:45:48;;;;;;;10.93;2.95;;;;;;;20.63;63.04;100257.13;5015768;28;20048;-59
2022/07/14 08:48:33;;;;;;;7.68;3.33;;;;;;;20.61;62.78;100259.81;5000910;28;20149;-59
2022/07/14 08:51:20;;;;;;;7.50;2.92;;;;;;;20.62;63.06;100255.38;5015375;28;20222;-60
2022/07/14 08:54:07;;;;;;;6.35;3.10;;;;;;;20.61;62.76;100257.16;5000878;28;20413;-60
2022/07/14 08:56:51;;;;;;;11.88;3.58;;;;;;;20.61;62.95;100248.38;5016000;28;20100;-60
2022/07/14 08:59:36;;;;;;;6.95;2.53;;;;;;;20.58;62.69;100249.34;5001067;28;20445;-60
2022/07/14 09:02:20;;;;;;;8.00;2.85;;;;;;;20.60;62.74;100246.66;5014456;28;20060;-60
2022/07/14 09:05:05;;;;;;;5.85;2.95;;;;;;;20.61;62.46;100258.91;5015406;28;20460;-59
2022/07/14 09:07:56;;;;;;;10.38;3.42;;;;;;;20.61;62.52;100258.91;5014674;28;20069;-59
2022/07/14 09:10:44;;;;;;;7.25;2.90;;;;;;;20.62;62.59;100264.19;5015437;28;20196;-59
2022/07/14 09:13:30;;;;;;;8.25;2.90;;;;;;;20.64;62.56;100259.72;5000817;28;20060;-59
2022/07/14 09:16:15;;;;;;;8.48;2.90;;;;;;;20.64;62.43;100267.59;4999653;28;20107;-60
2022/07/14 09:19:04;;;;;;;8.95;3.38;;;;;;;20.66;62.31;100272.88;5014745;28;20087;-60
2022/07/14 09:21:54;;;;;;;11.27;3.40;;;;;;;20.65;62.04;100279.88;5000497;28;20068;-60
2022/07/14 09:24:38;;;;;;;8.55;3.08;;;;;;;20.65;62.32;100279.88;5013993;28;20121;-59
2022/07/14 09:27:23;;;;;;;5.93;3.17;;;;;;;20.65;62.19;100273.75;5014884;28;20131;-59
2022/07/14 09:30:10;;;;;;;7.85;3.40;;;;;;;20.66;62.36;100267.59;5015209;28;20503;-60
2022/07/14 09:33:04;;;;;;;8.35;4.07;;;;;;;20.65;62.26;100269.34;5014606;28;20077;-59
2022/07/14 09:35:49;;;;;;;10.20;4.82;;;;;;;20.68;62.15;100260.53;5014960;28;20053;-59
2022/07/14 09:38:44;;;;;;;12.05;4.57;;;;;;;20.70;61.97;100264.00;5014711;28;20096;-60
2022/07/14 09:41:32;;;;;;;13.40;4.20;;;;;;;20.72;61.97;100269.22;5014824;28;20417;-60
2022/07/14 09:44:18;;;;;;;8.45;3.70;;;;;;;20.72;61.78;100267.44;5014616;28;20049;-60
2022/07/14 09:47:02;;;;;;;9.10;3.63;;;;;;;20.73;61.71;100273.59;5013736;28;20393;-60
2022/07/14 09:49:46;;;;;;;12.02;4.30;;;;;;;20.75;61.71;100271.78;5014101;28;20053;-59
2022/07/14 09:52:31;;;;;;;13.32;4.68;;;;;;;20.74;61.63;100264.78;5014202;28;20073;-60
2022/07/14 09:55:22;;;;;;;10.45;4.43;;;;;;;20.71;61.31;100276.25;5014926;28;20048;-60
2022/07/14 09:58:07;;;;;;;14.63;4.57;;;;;;;20.70;61.30;100277.16;4999748;28;20452;-60
2022/07/14 10:01:00;;;;;;;11.48;4.03;;;;;;;20.67;61.14;100280.72;5013260;28;20124;-60
2022/07/14 10:03:47;;;;;;;8.85;3.60;;;;;;;20.69;61.20;100286.81;5013797;28;20049;-60
2022/07/14 10:06:34;;;;;;;8.27;3.58;;;;;;;20.68;61.27;100279.81;5014693;28;20087;-60
2022/07/14 10:09:19;;;;;;;11.38;4.30;;;;;;;20.69;61.14;100278.91;5014236;28;20049;-59
2022/07/14 10:12:05;;;;;;;8.95;3.65;;;;;;;20.69;60.86;100278.91;4999602;28;20452;-58
2022/07/14 10:14:50;;;;;;;9.48;3.55;;;;;;;20.71;60.99;100285.91;5013587;28;20056;-59
2022/07/14 10:17:36;;;;;;;9.23;3.20;;;;;;;20.72;60.88;100285.03;5013930;28;20119;-58
2022/07/14 10:20:20;;;;;;;6.20;3.30;;;;;;;20.71;60.86;100286.78;5013495;28;20049;-59
2022/07/14 10:23:05;;;;;;;9.10;3.17;;;;;;;20.72;60.56;100287.66;5013860;28;20073;-59
2022/07/14 10:25:53;;;;;;;8.32;3.20;;;;;;;20.71;60.29;100278.03;5012916;28;20044;-59
2022/07/14 10:28:39;;;;;;;8.52;2.50;;;;;;;20.69;60.31;100278.91;5013194;28;20088;-58
2022/07/14 10:31:47;;;;;;;9.98;3.50;;;;;;;20.68;60.23;100286.88;5013962;28;20056;-60
2022/07/14 10:34:44;;;;;;;8.32;2.90;;;;;;;20.70;60.33;100282.44;5013857;28;20048;-60
2022/07/14 10:37:52;;;;;;;10.57;2.95;;;;;;;20.72;60.19;100282.38;5012596;28;20112;-60
2022/07/14 10:41:06;;;;;;;9.35;3.35;;;;;;;20.72;60.05;100277.97;5014178;28;20065;-59
2022/07/14 10:44:11;;;;;;;7.72;3.10;;;;;;;20.73;59.95;100287.59;5013504;28;20088;-59
2022/07/14 10:47:13;;;;;;;7.07;2.70;;;;;;;20.74;59.92;100291.97;5013372;28;20048;-59
2022/07/14 10:50:08;;;;;;;10.25;3.13;;;;;;;20.74;59.78;100293.75;5013716;28;20099;-60
2022/07/14 10:52:55;;;;;;;7.18;2.97;;;;;;;20.75;59.87;100288.47;4999179;28;20056;-59
2022/07/14 10:55:40;;;;;;;9.35;3.60;;;;;;;20.75;59.70;100285.84;5012498;28;20049;-58
2022/07/14 10:58:28;;;;;;;8.35;3.10;;;;;;;20.75;59.52;100283.22;5013730;28;20508;-58
2022/07/14 11:01:12;;;;;;;9.32;2.75;;;;;;;20.76;59.53;100281.47;4998419;28;20052;-58
2022/07/14 11:03:57;;;;;;;8.82;3.13;;;;;;;20.76;59.54;100284.09;5013409;28;20153;-60
2022/07/14 11:06:41;;;;;;;10.70;3.20;;;;;;;20.77;59.57;100276.16;5013394;28;20064;-60
2022/07/14 11:09:31;;;;;;;7.25;2.80;;;;;;;20.77;59.59;100285.81;5013464;28;20081;-60
2022/07/14 11:12:15;;;;;;;9.38;2.72;;;;;;;20.80;59.72;100278.72;5013486;28;20150;-60
2022/07/14 11:14:59;;;;;;;;;;;;;;;20.80;59.49;100286.63;5013489;28;20053;-60
2022/07/14 11:17:43;;;;;;;9.77;3.30;;;;;;;20.81;59.63;100284.84;5013294;28;19940;-60
2022/07/14 11:20:48;;;;;;;8.60;3.08;;;;;;;20.82;59.53;100284.81;4998958;28;20061;-60
2022/07/14 11:23:37;;;;;;;6.75;2.90;;;;;;;20.85;59.46;100297.03;4998507;28;20045;-60
2022/07/14 11:26:36;;;;;;;7.18;3.22;;;;;;;20.84;59.17;100284.78;5012681;28;20053;-60
2022/07/14 11:29:31;;;;;;;8.65;3.33;;;;;;;20.86;59.07;100285.59;4998641;28;20056;-60
2022/07/14 11:32:33;;;;;;;13.00;3.35;;;;;;;20.84;59.03;100282.13;5012951;28;20084;-60
2022/07/14 11:38:26;;;;;;;6.88;3.00;;;;;;;20.89;58.88;100285.53;5013632;28;20045;-59
2022/07/14 11:41:13;;;;;;;6.97;3.25;;;;;;;20.90;58.66;100275.84;5002463;28;20107;-59
2022/07/14 11:43:57;;;;;;;9.20;2.90;;;;;;;20.90;58.85;100279.38;5001987;28;20620;-59
2022/07/14 11:46:56;;;;;;;7.60;2.58;;;;;;;20.91;58.75;100275.84;5002509;28;20044;-59
2022/07/14 11:49:42;;;;;;;10.77;3.20;;;;;;;20.91;58.81;100272.31;5002113;28;20473;-59
2022/07/14 11:52:29;;;;;;;6.30;2.38;;;;;;;20.92;58.70;100268.78;5002166;28;20443;-60
2022/07/14 11:55:13;;;;;;;8.68;3.40;;;;;;;20.92;58.81;100269.69;5017097;28;20053;-60
2022/07/14 11:57:57;;;;;;;8.75;2.63;;;;;;;20.96;58.72;100273.09;5016252;28;20053;-60
2022/07/14 12:00:59;;;;;;;9.85;3.65;;;;;;;20.94;58.47;100269.63;5002186;28;20049;-60
2022/07/14 12:03:43;;;;;;;7.03;2.58;;;;;;;20.96;58.28;100270.47;5016838;28;20052;-59
2022/07/14 12:06:28;;;;;;;9.00;3.03;;;;;;;20.95;58.39;100264.31;5016879;28;20120;-58
2022/07/14 12:09:14;;;;;;;4.45;2.45;;;;;;;20.95;58.47;100264.31;5016659;28;20049;-59
2022/07/14 12:11:58;;;;;;;8.73;2.90;;;;;;;20.94;58.42;100270.47;5002025;28;20061;-59
2022/07/14 12:14:48;;;;;;;11.95;2.90;;;;;;;20.95;58.38;100269.56;5001954;28;20056;-60
2022/07/14 12:17:32;;;;;;;9.18;3.08;;;;;;;20.97;58.58;100262.50;5015665;28;20053;-60
2022/07/14 12:20:16;;;;;;;8.93;2.72;;;;;;;20.98;58.37;100263.38;5016599;28;20112;-60
2022/07/14 12:23:02;;;;;;;7.10;3.15;;;;;;;21.00;58.22;100258.97;5016549;28;20049;-59
2022/07/14 12:25:49;;;;;;;5.55;2.42;;;;;;;21.01;58.17;100265.06;5001337;28;20053;-59
2022/07/14 12:28:33;;;;;;;4.88;2.55;;;;;;;21.02;58.48;100258.91;5015637;28;20061;-60
2022/07/14 12:31:19;;;;;;;6.90;3.17;;;;;;;21.03;58.15;100255.38;5001644;28;20108;-61
2022/07/14 12:34:04;;;;;;;9.38;3.20;;;;;;;21.03;57.85;100260.63;5001460;28;20192;-59
2022/07/14 12:36:48;;;;;;;8.55;2.63;;;;;;;21.03;57.81;100272.03;5015876;28;20447;-59
2022/07/14 12:39:33;;;;;;;7.00;2.80;;;;;;;21.01;57.85;100267.72;5014517;28;20049;-60
2022/07/14 12:42:17;;;;;;;12.05;2.97;;;;;;;21.01;57.94;100271.22;5016082;28;20141;-60
2022/07/14 12:45:03;;;;;;;7.20;2.90;;;;;;;21.01;57.52;100267.72;5015584;28;20108;-59
2022/07/14 12:47:54;;;;;;;6.93;2.25;;;;;;;21.01;57.49;100267.72;5015825;28;20106;-59
2022/07/14 12:50:41;;;;;;;8.68;2.45;;;;;;;21.00;57.57;100272.13;4999889;28;20049;-59
2022/07/14 12:53:25;;;;;;;8.30;2.50;;;;;;;20.98;57.51;100269.50;5000692;28;20053;-59
2022/07/14 12:56:09;;;;;;;9.10;2.45;;;;;;;20.96;57.24;100268.69;5015683;28;20532;-60
2022/07/14 12:58:56;;;;;;;6.45;2.55;;;;;;;20.95;57.22;100271.34;5014444;28;20075;-58
2022/07/14 13:02:02;;;;;;;9.05;2.63;;;;;;;20.95;57.42;100258.19;5014482;28;20157;-58
2022/07/14 13:04:49;;;;;;;11.55;3.03;;;;;;;20.97;57.57;100259.03;5000960;28;20085;-60